KAZO

Kalamazoo / Battle Creek International Airport

Kalamazoo, Michigan, USA
METAR KAZO 241053Z 00000KT 4SM BR CLR 10/09 A3017 RMK AO2 SLP217 T01000089
Observed Flight Rules
Sep-24 @ 10:53 UTC (59 minutes ago) Marginal Visual Flight Rules
Visibility Clouds Conditions
4 miles
  • Clear skies
  • Mist
Temperatures Readings
Current 10°C / 50°F
Dewpoint 9°C / 48°F
Humidity 94%
Altimeter 30.17" Hg
Pressure 1021.7 hPa
Elevation 272
METAR KAZO 241053Z 00000KT 4SM BR CLR 10/09 A3017 RMK AO2 SLP217 T01000089
Observed Flight Rules
Sep-24 @ 10:53 UTC
(59 minutes ago)
MVFR
Clouds
  • Clear skies
Conditions
  • Mist
Temperature Dewpoint
10°C / 50°F 9°C / 48°F
Humidity Altimeter Pressure
94% 30.17" Hg 1021.7 hPa